createdAt,value
2016-11-17T00:00:06.308Z,1005.11
2016-11-17T00:00:16.310Z,1005.11
2016-11-17T00:00:26.300Z,1005.14
2016-11-17T00:00:36.289Z,1005.13
2016-11-17T00:00:46.300Z,1005.11
2016-11-17T00:00:56.265Z,1005.13
2016-11-17T00:01:06.276Z,1005.16
2016-11-17T00:01:16.264Z,1005.11
2016-11-17T00:01:26.271Z,1005.2
2016-11-17T00:01:36.267Z,1005.13
2016-11-17T00:01:46.245Z,1005.12
2016-11-17T00:01:56.238Z,1005.04
2016-11-17T00:02:06.240Z,1005.08
2016-11-17T00:02:16.251Z,1005.13
2016-11-17T00:02:26.220Z,1005.16
2016-11-17T00:02:36.210Z,1005.2
2016-11-17T00:02:46.215Z,1005.13
2016-11-17T00:02:56.209Z,1005.09
2016-11-17T00:03:06.205Z,1005.11
2016-11-17T00:03:16.200Z,1005.16
2016-11-17T00:03:26.200Z,1005.08
2016-11-17T00:03:36.186Z,1005.05
2016-11-17T00:03:46.187Z,1005.13
2016-11-17T00:03:56.189Z,1005.08
2016-11-17T00:04:06.163Z,1005.11
2016-11-17T00:04:16.319Z,1005.05
2016-11-17T00:04:26.165Z,1005.09
2016-11-17T00:04:36.166Z,1005.04
2016-11-17T00:04:46.139Z,1005.07
2016-11-17T00:04:56.137Z,1005.05
2016-11-17T00:05:06.142Z,1005.03
2016-11-17T00:05:16.136Z,1005.01
2016-11-17T00:05:26.132Z,1005
2016-11-17T00:05:36.111Z,1004.99
2016-11-17T00:05:46.116Z,1005.01
2016-11-17T00:05:56.108Z,1005.03
2016-11-17T00:06:06.081Z,1005.02
2016-11-17T00:06:16.101Z,1005.05
2016-11-17T00:06:26.094Z,1004.99
2016-11-17T00:06:36.085Z,1004.97
2016-11-17T00:06:46.085Z,1005
2016-11-17T00:06:56.071Z,1004.96
2016-11-17T00:07:06.056Z,1004.94
2016-11-17T00:07:16.061Z,1004.92
2016-11-17T00:07:26.045Z,1004.94
2016-11-17T00:07:36.059Z,1004.95
2016-11-17T00:07:46.206Z,1004.96
2016-11-17T00:07:56.023Z,1004.93
2016-11-17T00:08:06.031Z,1004.93
2016-11-17T00:08:16.021Z,1004.94
2016-11-17T00:08:26.016Z,1004.94
2016-11-17T00:08:36.025Z,1004.95
2016-11-17T00:08:46.027Z,1004.98
2016-11-17T00:08:56.008Z,1004.98
2016-11-17T00:09:06.008Z,1004.95
2016-11-17T00:09:16.135Z,1004.98
2016-11-17T00:09:25.991Z,1004.97
2016-11-17T00:09:35.983Z,1004.94
2016-11-17T00:09:45.974Z,1004.91
2016-11-17T00:09:55.974Z,1004.92
2016-11-17T00:10:05.960Z,1004.92
2016-11-17T00:10:15.959Z,1004.93
2016-11-17T00:10:25.958Z,1004.92
2016-11-17T00:10:35.940Z,1004.94
2016-11-17T00:10:45.951Z,1004.93
2016-11-17T00:10:55.933Z,1004.88
2016-11-17T00:11:05.924Z,1004.9
2016-11-17T00:11:15.917Z,1004.88
2016-11-17T00:11:25.907Z,1004.88
2016-11-17T00:11:35.910Z,1004.99
2016-11-17T00:11:45.899Z,1004.92
2016-11-17T00:11:55.905Z,1004.93
2016-11-17T00:12:05.886Z,1004.86
2016-11-17T00:12:15.869Z,1004.93
2016-11-17T00:12:25.875Z,1004.84
2016-11-17T00:12:35.884Z,1004.87
2016-11-17T00:12:45.868Z,1004.88
2016-11-17T00:12:55.869Z,1004.87
2016-11-17T00:13:05.849Z,1004.94
2016-11-17T00:13:15.863Z,1004.9
2016-11-17T00:13:25.855Z,1004.88
2016-11-17T00:13:35.844Z,1004.93
2016-11-17T00:13:45.827Z,1004.85
2016-11-17T00:13:55.834Z,1004.87
2016-11-17T00:14:05.835Z,1004.86
2016-11-17T00:14:15.823Z,1004.88
2016-11-17T00:14:25.813Z,1004.87
2016-11-17T00:14:35.806Z,1004.89
2016-11-17T00:14:45.801Z,1004.93
2016-11-17T00:14:55.805Z,1004.88
2016-11-17T00:15:05.779Z,1004.87
2016-11-17T00:15:15.779Z,1004.86
2016-11-17T00:15:25.786Z,1004.9
2016-11-17T00:15:35.779Z,1004.86
2016-11-17T00:15:45.754Z,1004.92
2016-11-17T00:15:55.754Z,1004.94
2016-11-17T00:16:05.752Z,1004.88
2016-11-17T00:16:15.737Z,1004.88
2016-11-17T00:16:25.768Z,1004.85
2016-11-17T00:16:35.732Z,1004.89
2016-11-17T00:16:45.726Z,1004.87
2016-11-17T00:16:55.733Z,1004.92
2016-11-17T00:17:05.736Z,1004.91
2016-11-17T00:17:15.699Z,1004.96
2016-11-17T00:17:25.706Z,1004.89
2016-11-17T00:17:35.685Z,1004.93
2016-11-17T00:17:45.694Z,1004.86
2016-11-17T00:17:55.690Z,1004.91
2016-11-17T00:18:05.678Z,1004.96
2016-11-17T00:18:15.670Z,1004.91
2016-11-17T00:18:25.675Z,1004.95
2016-11-17T00:18:35.699Z,1004.95
2016-11-17T00:18:45.682Z,1004.93
2016-11-17T00:18:55.652Z,1004.89
2016-11-17T00:19:05.651Z,1004.95
2016-11-17T00:19:15.647Z,1004.9
2016-11-17T00:19:25.641Z,1004.85
2016-11-17T00:19:35.635Z,1004.88
2016-11-17T00:19:45.630Z,1004.9
2016-11-17T00:19:55.611Z,1004.92
2016-11-17T00:20:05.613Z,1004.9
2016-11-17T00:20:15.609Z,1004.91
2016-11-17T00:20:25.612Z,1004.9
2016-11-17T00:20:35.604Z,1004.88
2016-11-17T00:20:45.974Z,1004.9
2016-11-17T00:20:55.597Z,1004.88
2016-11-17T00:21:05.571Z,1004.87
2016-11-17T00:21:15.600Z,1004.87
2016-11-17T00:21:25.937Z,1004.94
2016-11-17T00:21:35.565Z,1004.89
2016-11-17T00:21:45.563Z,1004.92
2016-11-17T00:21:55.537Z,1004.87
2016-11-17T00:22:05.555Z,1004.87
2016-11-17T00:22:15.539Z,1004.95
2016-11-17T00:22:25.539Z,1004.88
2016-11-17T00:22:35.531Z,1004.91
2016-11-17T00:22:45.522Z,1004.91
2016-11-17T00:22:55.509Z,1004.93
2016-11-17T00:23:05.519Z,1004.9
2016-11-17T00:23:15.503Z,1004.85
2016-11-17T00:23:25.504Z,1004.88
2016-11-17T00:23:35.492Z,1004.89
2016-11-17T00:23:45.487Z,1004.87
2016-11-17T00:23:55.469Z,1004.87
2016-11-17T00:24:05.472Z,1004.86
2016-11-17T00:24:15.478Z,1004.88
2016-11-17T00:24:25.459Z,1004.85
2016-11-17T00:24:35.493Z,1004.87
2016-11-17T00:24:45.463Z,1004.91
2016-11-17T00:24:55.443Z,1004.87
2016-11-17T00:25:05.444Z,1004.84
2016-11-17T00:25:15.437Z,1004.86
2016-11-17T00:25:25.432Z,1004.88
2016-11-17T00:25:35.419Z,1004.87
2016-11-17T00:25:45.415Z,1004.83
2016-11-17T00:25:55.405Z,1004.84
2016-11-17T00:26:05.408Z,1004.83
2016-11-17T00:26:15.390Z,1004.76
2016-11-17T00:26:25.393Z,1004.86
2016-11-17T00:26:35.388Z,1004.78
2016-11-17T00:26:45.379Z,1004.82
2016-11-17T00:26:55.368Z,1004.81
2016-11-17T00:27:05.379Z,1004.87
2016-11-17T00:27:15.374Z,1004.85
2016-11-17T00:27:25.363Z,1004.83
2016-11-17T00:27:35.340Z,1004.85
2016-11-17T00:27:45.348Z,1004.89
2016-11-17T00:27:55.329Z,1004.83
2016-11-17T00:28:05.326Z,1004.84
2016-11-17T00:28:15.333Z,1004.84
2016-11-17T00:28:25.331Z,1004.84
2016-11-17T00:28:35.322Z,1004.81
2016-11-17T00:28:45.309Z,1004.83
2016-11-17T00:28:55.335Z,1004.84
2016-11-17T00:29:05.312Z,1004.88
2016-11-17T00:29:15.291Z,1004.86
2016-11-17T00:29:25.279Z,1004.84
2016-11-17T00:29:35.280Z,1004.85
2016-11-17T00:29:45.270Z,1004.82
2016-11-17T00:29:55.279Z,1004.79
2016-11-17T00:30:05.272Z,1004.79
2016-11-17T00:30:15.263Z,1004.8
2016-11-17T00:30:25.265Z,1004.87
2016-11-17T00:30:35.261Z,1004.83
2016-11-17T00:30:45.235Z,1004.82
2016-11-17T00:30:55.229Z,1004.85
2016-11-17T00:31:05.228Z,1004.85
2016-11-17T00:31:15.222Z,1004.78
2016-11-17T00:31:25.219Z,1004.86
2016-11-17T00:31:35.222Z,1004.84
2016-11-17T00:31:45.209Z,1004.81
2016-11-17T00:31:55.204Z,1004.84
2016-11-17T00:32:05.200Z,1004.82
2016-11-17T00:32:15.192Z,1004.78
2016-11-17T00:32:25.193Z,1004.85
2016-11-17T00:32:35.183Z,1004.81
2016-11-17T00:32:45.174Z,1004.79
2016-11-17T00:32:55.155Z,1004.73
2016-11-17T00:33:05.167Z,1004.8
2016-11-17T00:33:15.157Z,1004.82
2016-11-17T00:33:25.159Z,1004.78
2016-11-17T00:33:35.152Z,1004.84
2016-11-17T00:33:45.135Z,1004.74
2016-11-17T00:33:55.145Z,1004.77
2016-11-17T00:34:05.126Z,1004.8
2016-11-17T00:34:15.116Z,1004.78
2016-11-17T00:34:25.112Z,1004.76
2016-11-17T00:34:35.110Z,1004.73
2016-11-17T00:34:45.431Z,1004.77
2016-11-17T00:34:55.103Z,1004.7
2016-11-17T00:35:05.100Z,1004.8
2016-11-17T00:35:15.084Z,1004.77
2016-11-17T00:35:25.070Z,1004.77
2016-11-17T00:35:35.075Z,1004.81
2016-11-17T00:35:45.070Z,1004.78
2016-11-17T00:35:55.064Z,1004.8
2016-11-17T00:36:05.056Z,1004.77
2016-11-17T00:36:15.046Z,1004.75
2016-11-17T00:36:25.088Z,1004.76
2016-11-17T00:36:35.043Z,1004.8
2016-11-17T00:36:45.042Z,1004.76
2016-11-17T00:36:55.030Z,1004.71
2016-11-17T00:37:05.028Z,1004.68
2016-11-17T00:37:15.011Z,1004.73
2016-11-17T00:37:25.005Z,1004.75
2016-11-17T00:37:35.011Z,1004.72
2016-11-17T00:37:44.986Z,1004.77
2016-11-17T00:37:54.997Z,1004.78
2016-11-17T00:38:04.985Z,1004.77
2016-11-17T00:38:14.973Z,1004.73
2016-11-17T00:38:24.970Z,1004.74
2016-11-17T00:38:34.954Z,1004.73
2016-11-17T00:38:44.956Z,1004.72
2016-11-17T00:38:54.956Z,1004.73
2016-11-17T00:39:04.952Z,1004.7
2016-11-17T00:39:14.965Z,1004.69
2016-11-17T00:39:24.930Z,1004.76
2016-11-17T00:39:34.951Z,1004.76
2016-11-17T00:39:44.930Z,1004.71
2016-11-17T00:39:54.928Z,1004.7
2016-11-17T00:40:04.902Z,1004.73
2016-11-17T00:40:14.914Z,1004.71
2016-11-17T00:40:24.912Z,1004.68
2016-11-17T00:40:34.940Z,1004.73
2016-11-17T00:40:44.902Z,1004.76
2016-11-17T00:40:54.890Z,1004.67
2016-11-17T00:41:04.891Z,1004.7
2016-11-17T00:41:14.879Z,1004.74
2016-11-17T00:41:24.883Z,1004.7
2016-11-17T00:41:34.904Z,1004.72
2016-11-17T00:41:44.857Z,1004.7
2016-11-17T00:41:54.840Z,1004.72
2016-11-17T00:42:04.839Z,1004.71
2016-11-17T00:42:14.851Z,1004.68
2016-11-17T00:42:24.844Z,1004.69
2016-11-17T00:42:34.832Z,1004.63
2016-11-17T00:42:44.828Z,1004.65
2016-11-17T00:42:54.820Z,1004.67
2016-11-17T00:43:04.817Z,1004.65
2016-11-17T00:43:14.801Z,1004.7
2016-11-17T00:43:24.809Z,1004.62
2016-11-17T00:43:34.825Z,1004.7
2016-11-17T00:43:44.801Z,1004.69
2016-11-17T00:43:54.779Z,1004.66
2016-11-17T00:44:04.771Z,1004.68
2016-11-17T00:44:14.769Z,1004.67
2016-11-17T00:44:24.764Z,1004.7
2016-11-17T00:44:34.758Z,1004.71
2016-11-17T00:44:44.752Z,1004.71
2016-11-17T00:44:54.742Z,1004.76
2016-11-17T00:45:04.740Z,1004.72
2016-11-17T00:45:14.738Z,1004.7
2016-11-17T00:45:24.734Z,1004.73
2016-11-17T00:45:34.737Z,1004.71
2016-11-17T00:45:44.726Z,1004.67
2016-11-17T00:45:54.724Z,1004.67
2016-11-17T00:46:04.713Z,1004.68
2016-11-17T00:46:14.718Z,1004.69
2016-11-17T00:46:24.684Z,1004.66
2016-11-17T00:46:34.698Z,1004.66
2016-11-17T00:46:44.682Z,1004.68
2016-11-17T00:46:54.678Z,1004.67
2016-11-17T00:47:04.664Z,1004.62
2016-11-17T00:47:14.673Z,1004.63
2016-11-17T00:47:24.657Z,1004.61
2016-11-17T00:47:34.669Z,1004.57
2016-11-17T00:47:44.654Z,1004.58
2016-11-17T00:47:54.639Z,1004.62
2016-11-17T00:48:04.967Z,1004.57
2016-11-17T00:48:14.632Z,1004.6
2016-11-17T00:48:24.616Z,1004.6
2016-11-17T00:48:34.617Z,1004.58
2016-11-17T00:48:44.613Z,1004.62
2016-11-17T00:48:54.581Z,1004.59
2016-11-17T00:49:04.602Z,1004.56
2016-11-17T00:49:14.598Z,1004.58
2016-11-17T00:49:24.598Z,1004.52
2016-11-17T00:49:34.584Z,1004.52
2016-11-17T00:49:44.578Z,1004.54
2016-11-17T00:49:54.594Z,1004.51
2016-11-17T00:50:04.574Z,1004.53
2016-11-17T00:50:14.566Z,1004.53
2016-11-17T00:50:24.566Z,1004.52
2016-11-17T00:50:34.559Z,1004.54
2016-11-17T00:50:44.535Z,1004.53
2016-11-17T00:50:54.536Z,1004.45
2016-11-17T00:51:04.531Z,1004.51
2016-11-17T00:51:14.518Z,1004.51
2016-11-17T00:51:24.524Z,1004.51
2016-11-17T00:51:34.527Z,1004.54
2016-11-17T00:51:44.520Z,1004.48
2016-11-17T00:51:54.509Z,1004.52
2016-11-17T00:52:04.486Z,1004.55
2016-11-17T00:52:14.500Z,1004.52
2016-11-17T00:52:24.473Z,1004.59
2016-11-17T00:52:34.484Z,1004.5
2016-11-17T00:52:44.476Z,1004.51
2016-11-17T00:52:54.455Z,1004.53
2016-11-17T00:53:04.470Z,1004.52
2016-11-17T00:53:14.487Z,1004.51
2016-11-17T00:53:24.455Z,1004.54
2016-11-17T00:53:34.445Z,1004.52
2016-11-17T00:53:44.444Z,1004.55
2016-11-17T00:53:54.434Z,1004.48
2016-11-17T00:54:04.436Z,1004.48
2016-11-17T00:54:14.429Z,1004.45
2016-11-17T00:54:24.417Z,1004.5
2016-11-17T00:54:34.399Z,1004.48
2016-11-17T00:54:44.564Z,1004.52
2016-11-17T00:54:54.400Z,1004.47
2016-11-17T00:55:04.394Z,1004.5
2016-11-17T00:55:14.390Z,1004.53
2016-11-17T00:55:24.377Z,1004.51
2016-11-17T00:55:34.356Z,1004.49
2016-11-17T00:55:44.373Z,1004.51
2016-11-17T00:55:54.370Z,1004.54
2016-11-17T00:56:04.366Z,1004.54
2016-11-17T00:56:14.391Z,1004.54
2016-11-17T00:56:24.361Z,1004.53
2016-11-17T00:56:34.343Z,1004.55
2016-11-17T00:56:44.343Z,1004.55
2016-11-17T00:56:54.335Z,1004.53
2016-11-17T00:57:04.319Z,1004.55
2016-11-17T00:57:14.318Z,1004.55
2016-11-17T00:57:24.319Z,1004.58
2016-11-17T00:57:34.312Z,1004.53
2016-11-17T00:57:44.296Z,1004.57
2016-11-17T00:57:54.291Z,1004.56
2016-11-17T00:58:04.274Z,1004.51
2016-11-17T00:58:14.286Z,1004.52
2016-11-17T00:58:24.283Z,1004.58
2016-11-17T00:58:34.283Z,1004.53
2016-11-17T00:58:44.421Z,1004.51
2016-11-17T00:58:54.248Z,1004.48
2016-11-17T00:59:04.257Z,1004.53
2016-11-17T00:59:14.251Z,1004.54
2016-11-17T00:59:24.243Z,1004.5
2016-11-17T00:59:34.236Z,1004.5
2016-11-17T00:59:44.225Z,1004.5
2016-11-17T00:59:54.564Z,1004.48
2016-11-17T01:00:04.229Z,1004.5
2016-11-17T01:00:14.210Z,1004.48
2016-11-17T01:00:24.212Z,1004.53
2016-11-17T01:00:34.200Z,1004.46
2016-11-17T01:00:44.186Z,1004.48
2016-11-17T01:00:54.188Z,1004.49
2016-11-17T01:01:04.182Z,1004.47
2016-11-17T01:01:14.186Z,1004.49
2016-11-17T01:01:24.181Z,1004.46
2016-11-17T01:01:34.175Z,1004.51
2016-11-17T01:01:44.146Z,1004.5
2016-11-17T01:01:54.155Z,1004.46
2016-11-17T01:02:04.151Z,1004.5
2016-11-17T01:02:14.136Z,1004.52
2016-11-17T01:02:24.145Z,1004.47
2016-11-17T01:02:34.123Z,1004.48
2016-11-17T01:02:44.122Z,1004.49
2016-11-17T01:02:54.116Z,1004.47
2016-11-17T01:03:04.122Z,1004.45
2016-11-17T01:03:14.103Z,1004.43
2016-11-17T01:03:24.094Z,1004.44
2016-11-17T01:03:34.094Z,1004.46
2016-11-17T01:03:44.099Z,1004.46
2016-11-17T01:03:54.091Z,1004.43
2016-11-17T01:04:04.086Z,1004.44
2016-11-17T01:04:14.085Z,1004.45
2016-11-17T01:04:24.063Z,1004.46
2016-11-17T01:04:34.064Z,1004.46
2016-11-17T01:04:44.051Z,1004.45
2016-11-17T01:04:54.050Z,1004.45
2016-11-17T01:05:04.043Z,1004.45
2016-11-17T01:05:14.040Z,1004.46
2016-11-17T01:05:24.033Z,1004.42
2016-11-17T01:05:34.019Z,1004.45
2016-11-17T01:05:44.014Z,1004.47
2016-11-17T01:05:54.002Z,1004.46
2016-11-17T01:06:03.998Z,1004.41
2016-11-17T01:06:13.997Z,1004.41
2016-11-17T01:06:23.992Z,1004.47
2016-11-17T01:06:34.001Z,1004.47
2016-11-17T01:06:43.993Z,1004.51
2016-11-17T01:06:53.965Z,1004.44
2016-11-17T01:07:03.973Z,1004.45
2016-11-17T01:07:13.981Z,1004.46
2016-11-17T01:07:23.952Z,1004.47
2016-11-17T01:07:33.965Z,1004.46
2016-11-17T01:07:43.958Z,1004.47
2016-11-17T01:07:53.958Z,1004.48
2016-11-17T01:08:03.938Z,1004.44
2016-11-17T01:08:13.941Z,1004.48
2016-11-17T01:08:23.936Z,1004.45
2016-11-17T01:08:33.921Z,1004.43
2016-11-17T01:08:43.913Z,1004.44
2016-11-17T01:08:53.902Z,1004.47
2016-11-17T01:09:03.916Z,1004.47
2016-11-17T01:09:13.897Z,1004.45
2016-11-17T01:09:23.892Z,1004.45
2016-11-17T01:09:33.888Z,1004.46
2016-11-17T01:09:43.877Z,1004.47
2016-11-17T01:09:53.902Z,1004.5
2016-11-17T01:10:03.870Z,1004.49
2016-11-17T01:10:13.849Z,1004.48
2016-11-17T01:10:23.859Z,1004.47
2016-11-17T01:10:33.853Z,1004.43
2016-11-17T01:10:43.858Z,1004.48
2016-11-17T01:10:53.835Z,1004.54
2016-11-17T01:11:03.834Z,1004.48
2016-11-17T01:11:13.831Z,1004.48
2016-11-17T01:11:23.823Z,1004.48
2016-11-17T01:11:33.829Z,1004.46
2016-11-17T01:11:43.812Z,1004.46
2016-11-17T01:11:53.799Z,1004.52
2016-11-17T01:12:03.805Z,1004.47
2016-11-17T01:12:13.786Z,1004.53
2016-11-17T01:12:23.795Z,1004.55
2016-11-17T01:12:33.785Z,1004.45
2016-11-17T01:12:43.766Z,1004.48
2016-11-17T01:12:53.758Z,1004.43
2016-11-17T01:13:03.776Z,1004.5
2016-11-17T01:13:13.752Z,1004.51
2016-11-17T01:13:23.764Z,1004.47
2016-11-17T01:13:33.896Z,1004.51
2016-11-17T01:13:43.751Z,1004.47
2016-11-17T01:13:53.709Z,1004.49
2016-11-17T01:14:03.730Z,1004.51
2016-11-17T01:14:13.726Z,1004.45
2016-11-17T01:14:23.719Z,1004.47
2016-11-17T01:14:33.720Z,1004.51
2016-11-17T01:14:43.704Z,1004.5
2016-11-17T01:14:53.704Z,1004.56
2016-11-17T01:15:03.685Z,1004.52
2016-11-17T01:15:13.680Z,1004.53
2016-11-17T01:15:23.680Z,1004.51
2016-11-17T01:15:33.710Z,1004.52
2016-11-17T01:15:43.665Z,1004.56
2016-11-17T01:15:53.657Z,1004.53
2016-11-17T01:16:03.645Z,1004.5
2016-11-17T01:16:13.647Z,1004.6
2016-11-17T01:16:23.639Z,1004.53
2016-11-17T01:16:33.970Z,1004.54
2016-11-17T01:16:43.633Z,1004.55
2016-11-17T01:16:53.621Z,1004.52
2016-11-17T01:17:03.616Z,1004.56
2016-11-17T01:17:13.642Z,1004.54
2016-11-17T01:17:23.957Z,1004.56
2016-11-17T01:17:33.608Z,1004.55
2016-11-17T01:17:43.600Z,1004.57
2016-11-17T01:17:53.604Z,1004.58
2016-11-17T01:18:03.601Z,1004.58
2016-11-17T01:18:13.572Z,1004.53
2016-11-17T01:18:23.587Z,1004.56
2016-11-17T01:18:33.568Z,1004.57
2016-11-17T01:18:43.566Z,1004.53
2016-11-17T01:18:53.567Z,1004.55
2016-11-17T01:19:03.553Z,1004.54
2016-11-17T01:19:13.545Z,1004.52
2016-11-17T01:19:23.540Z,1004.55
2016-11-17T01:19:33.528Z,1004.5
2016-11-17T01:19:43.517Z,1004.56
2016-11-17T01:19:53.525Z,1004.55
2016-11-17T01:20:03.515Z,1004.57
2016-11-17T01:20:13.533Z,1004.62
2016-11-17T01:20:23.504Z,1004.6
2016-11-17T01:20:33.492Z,1004.55
2016-11-17T01:20:43.496Z,1004.51
2016-11-17T01:20:53.483Z,1004.6
2016-11-17T01:21:03.494Z,1004.58
2016-11-17T01:21:13.487Z,1004.54
2016-11-17T01:21:23.475Z,1004.53
2016-11-17T01:21:33.468Z,1004.49
2016-11-17T01:21:43.438Z,1004.51
2016-11-17T01:21:53.457Z,1004.47
2016-11-17T01:22:03.452Z,1004.5
2016-11-17T01:22:13.451Z,1004.53
2016-11-17T01:22:23.442Z,1004.51
2016-11-17T01:22:33.430Z,1004.54
2016-11-17T01:22:43.408Z,1004.52
2016-11-17T01:22:53.414Z,1004.46
2016-11-17T01:23:03.419Z,1004.5
2016-11-17T01:23:13.401Z,1004.53
2016-11-17T01:23:23.422Z,1004.51
2016-11-17T01:23:33.401Z,1004.5
2016-11-17T01:23:43.397Z,1004.46
2016-11-17T01:23:53.381Z,1004.44
2016-11-17T01:24:03.370Z,1004.47
2016-11-17T01:24:13.371Z,1004.52
2016-11-17T01:24:23.361Z,1004.44
2016-11-17T01:24:33.348Z,1004.51
2016-11-17T01:24:43.356Z,1004.52
2016-11-17T01:24:53.353Z,1004.53
2016-11-17T01:25:03.342Z,1004.49
2016-11-17T01:25:13.356Z,1004.49
2016-11-17T01:25:23.342Z,1004.48
2016-11-17T01:25:33.335Z,1004.45
2016-11-17T01:25:43.317Z,1004.47
2016-11-17T01:25:53.300Z,1004.42
2016-11-17T01:26:03.313Z,1004.45
2016-11-17T01:26:13.303Z,1004.48
2016-11-17T01:26:23.306Z,1004.48
2016-11-17T01:26:33.294Z,1004.47
2016-11-17T01:26:43.273Z,1004.45
2016-11-17T01:26:53.288Z,1004.47
2016-11-17T01:27:03.272Z,1004.46
2016-11-17T01:27:13.277Z,1004.46
2016-11-17T01:27:23.263Z,1004.49
2016-11-17T01:27:33.283Z,1004.51
2016-11-17T01:27:43.249Z,1004.46
2016-11-17T01:27:53.241Z,1004.47
2016-11-17T01:28:03.249Z,1004.49
2016-11-17T01:28:13.235Z,1004.51
2016-11-17T01:28:23.234Z,1004.51
2016-11-17T01:28:33.259Z,1004.46
2016-11-17T01:28:43.225Z,1004.5
2016-11-17T01:28:53.203Z,1004.47
2016-11-17T01:29:03.205Z,1004.44
2016-11-17T01:29:13.193Z,1004.45
2016-11-17T01:29:23.190Z,1004.48
2016-11-17T01:29:33.190Z,1004.45
2016-11-17T01:29:43.171Z,1004.43
2016-11-17T01:29:53.172Z,1004.43
2016-11-17T01:30:03.169Z,1004.47
2016-11-17T01:30:13.156Z,1004.41
2016-11-17T01:30:23.161Z,1004.43
2016-11-17T01:30:33.153Z,1004.44
2016-11-17T01:30:43.140Z,1004.52
2016-11-17T01:30:53.142Z,1004.48
2016-11-17T01:31:03.173Z,1004.43
2016-11-17T01:31:13.136Z,1004.49
2016-11-17T01:31:23.133Z,1004.44
2016-11-17T01:31:33.440Z,1004.44
2016-11-17T01:31:43.116Z,1004.44
2016-11-17T01:31:53.092Z,1004.47
2016-11-17T01:32:03.091Z,1004.42
2016-11-17T01:32:13.091Z,1004.4
2016-11-17T01:32:23.096Z,1004.42
2016-11-17T01:32:33.076Z,1004.43
2016-11-17T01:32:43.085Z,1004.47
2016-11-17T01:32:53.068Z,1004.44
2016-11-17T01:33:03.069Z,1004.38
2016-11-17T01:33:13.053Z,1004.46
2016-11-17T01:33:23.028Z,1004.38
2016-11-17T01:33:33.044Z,1004.38
2016-11-17T01:33:43.206Z,1004.39
2016-11-17T01:33:53.026Z,1004.39
2016-11-17T01:34:03.034Z,1004.4
2016-11-17T01:34:13.021Z,1004.37
2016-11-17T01:34:23.021Z,1004.37
2016-11-17T01:34:33.013Z,1004.43
2016-11-17T01:34:43.007Z,1004.4
2016-11-17T01:34:52.991Z,1004.4
2016-11-17T01:35:02.992Z,1004.36
2016-11-17T01:35:12.995Z,1004.41
2016-11-17T01:35:22.971Z,1004.37
2016-11-17T01:35:32.974Z,1004.4
2016-11-17T01:35:42.969Z,1004.37
2016-11-17T01:35:52.960Z,1004.35
2016-11-17T01:36:02.970Z,1004.38
2016-11-17T01:36:12.960Z,1004.4
2016-11-17T01:36:22.938Z,1004.39
2016-11-17T01:36:32.929Z,1004.36
2016-11-17T01:36:42.940Z,1004.4
2016-11-17T01:36:52.938Z,1004.4
2016-11-17T01:37:02.917Z,1004.4
2016-11-17T01:37:12.912Z,1004.38
2016-11-17T01:37:22.918Z,1004.37
2016-11-17T01:37:32.901Z,1004.4
2016-11-17T01:37:42.903Z,1004.41
2016-11-17T01:37:52.896Z,1004.46
2016-11-17T01:38:02.886Z,1004.4
2016-11-17T01:38:12.881Z,1004.44
2016-11-17T01:38:22.871Z,1004.41
2016-11-17T01:38:32.875Z,1004.4
2016-11-17T01:38:42.870Z,1004.38
2016-11-17T01:38:52.874Z,1004.41
2016-11-17T01:39:02.849Z,1004.4
2016-11-17T01:39:12.834Z,1004.41
2016-11-17T01:39:22.842Z,1004.42
2016-11-17T01:39:32.844Z,1004.41
2016-11-17T01:39:42.828Z,1004.4
2016-11-17T01:39:52.831Z,1004.4
2016-11-17T01:40:02.813Z,1004.42
2016-11-17T01:40:12.802Z,1004.41
2016-11-17T01:40:22.806Z,1004.35
2016-11-17T01:40:32.797Z,1004.36
2016-11-17T01:40:42.788Z,1004.37
2016-11-17T01:40:52.790Z,1004.33
2016-11-17T01:41:02.770Z,1004.37
2016-11-17T01:41:12.770Z,1004.35
2016-11-17T01:41:22.771Z,1004.37
2016-11-17T01:41:32.769Z,1004.35
2016-11-17T01:41:42.749Z,1004.32
2016-11-17T01:41:52.753Z,1004.29
2016-11-17T01:42:02.749Z,1004.32
2016-11-17T01:42:12.732Z,1004.31
2016-11-17T01:42:22.739Z,1004.3
2016-11-17T01:42:32.728Z,1004.33
2016-11-17T01:42:42.741Z,1004.31
2016-11-17T01:42:52.734Z,1004.31
2016-11-17T01:43:02.721Z,1004.3
2016-11-17T01:43:12.716Z,1004.29
2016-11-17T01:43:22.694Z,1004.27
2016-11-17T01:43:32.700Z,1004.24
2016-11-17T01:43:42.677Z,1004.29
2016-11-17T01:43:52.681Z,1004.3
2016-11-17T01:44:02.687Z,1004.26
2016-11-17T01:44:12.657Z,1004.28
2016-11-17T01:44:22.654Z,1004.29
2016-11-17T01:44:32.676Z,1004.33
2016-11-17T01:44:42.656Z,1004.31
2016-11-17T01:44:52.653Z,1004.29
2016-11-17T01:45:02.647Z,1004.28
2016-11-17T01:45:12.633Z,1004.28
2016-11-17T01:45:22.639Z,1004.25
2016-11-17T01:45:32.628Z,1004.23
2016-11-17T01:45:42.617Z,1004.25
2016-11-17T01:45:52.611Z,1004.19
2016-11-17T01:46:02.598Z,1004.27
2016-11-17T01:46:12.600Z,1004.22
2016-11-17T01:46:22.596Z,1004.18
2016-11-17T01:46:32.580Z,1004.19
2016-11-17T01:46:42.594Z,1004.17
2016-11-17T01:46:52.564Z,1004.18
2016-11-17T01:47:02.571Z,1004.22
2016-11-17T01:47:12.558Z,1004.18
2016-11-17T01:47:22.563Z,1004.16
2016-11-17T01:47:32.551Z,1004.18
2016-11-17T01:47:42.552Z,1004.17
2016-11-17T01:47:52.545Z,1004.18
2016-11-17T01:48:02.538Z,1004.07
2016-11-17T01:48:12.523Z,1004.18
2016-11-17T01:48:22.519Z,1004.12
2016-11-17T01:48:32.524Z,1004.17
2016-11-17T01:48:42.515Z,1004.16
2016-11-17T01:48:52.503Z,1004.12
2016-11-17T01:49:02.498Z,1004.18
2016-11-17T01:49:12.499Z,1004.16
2016-11-17T01:49:22.484Z,1004.13
2016-11-17T01:49:32.481Z,1004.12
2016-11-17T01:49:42.454Z,1004.15
2016-11-17T01:49:52.467Z,1004.11
2016-11-17T01:50:02.479Z,1004.05
2016-11-17T01:50:12.465Z,1004.1
2016-11-17T01:50:22.457Z,1004.07
2016-11-17T01:50:32.603Z,1004.06
2016-11-17T01:50:42.456Z,1004.06
2016-11-17T01:50:52.437Z,1004.07
2016-11-17T01:51:02.438Z,1004.1
2016-11-17T01:51:12.421Z,1004.08
2016-11-17T01:51:22.408Z,1004.13
2016-11-17T01:51:32.413Z,1004.08
2016-11-17T01:51:42.399Z,1004.12
2016-11-17T01:51:52.404Z,1004.12
2016-11-17T01:52:02.393Z,1004.12
2016-11-17T01:52:12.388Z,1004.14
2016-11-17T01:52:22.384Z,1004.11
2016-11-17T01:52:32.381Z,1004.09
2016-11-17T01:52:42.372Z,1004.09
2016-11-17T01:52:52.506Z,1004.07
2016-11-17T01:53:02.363Z,1004.12
2016-11-17T01:53:12.368Z,1004.11
2016-11-17T01:53:22.350Z,1004.17
2016-11-17T01:53:32.344Z,1004.1
2016-11-17T01:53:42.336Z,1004.06
2016-11-17T01:53:52.318Z,1004.09
2016-11-17T01:54:02.333Z,1004.09
2016-11-17T01:54:12.330Z,1004.08
2016-11-17T01:54:22.302Z,1004.14
2016-11-17T01:54:32.319Z,1004.13
2016-11-17T01:54:42.336Z,1004.12
2016-11-17T01:54:52.294Z,1004.1
2016-11-17T01:55:02.623Z,1004.08
2016-11-17T01:55:12.278Z,1004.12
2016-11-17T01:55:22.286Z,1004.11
2016-11-17T01:55:32.280Z,1004.14
2016-11-17T01:55:42.263Z,1004.11
2016-11-17T01:55:52.252Z,1004.03
2016-11-17T01:56:02.258Z,1004.06
2016-11-17T01:56:12.239Z,1004.05
2016-11-17T01:56:22.232Z,1004.06
2016-11-17T01:56:32.280Z,1004.04
2016-11-17T01:56:42.250Z,1004.06
2016-11-17T01:56:52.225Z,1004.07
2016-11-17T01:57:02.219Z,1004.04
2016-11-17T01:57:12.214Z,1004.05
2016-11-17T01:57:22.211Z,1004.03
2016-11-17T01:57:32.213Z,1004.05
2016-11-17T01:57:42.199Z,1003.97
2016-11-17T01:57:52.183Z,1003.97
2016-11-17T01:58:02.193Z,1003.99
2016-11-17T01:58:12.169Z,1003.96
2016-11-17T01:58:22.167Z,1003.98
2016-11-17T01:58:32.203Z,1004.05
2016-11-17T01:58:42.145Z,1004.01
2016-11-17T01:58:52.186Z,1003.99
2016-11-17T01:59:02.142Z,1004.03
2016-11-17T01:59:12.138Z,1004.01
2016-11-17T01:59:22.146Z,1004.06
2016-11-17T01:59:32.156Z,1004.06
2016-11-17T01:59:42.126Z,1004.08
2016-11-17T01:59:52.110Z,1004.03
2016-11-17T02:00:02.103Z,1004.04
2016-11-17T02:00:12.102Z,1004.02
2016-11-17T02:00:22.102Z,1004.03
2016-11-17T02:00:32.078Z,1004.05
2016-11-17T02:00:42.094Z,1004.02
2016-11-17T02:00:52.080Z,1003.99
2016-11-17T02:01:02.083Z,1004
2016-11-17T02:01:12.063Z,1004.07
2016-11-17T02:01:22.071Z,1004.01